Airfield :
LOGIN :

Register | Disclaimer

   EN    FR    IT 

 










Legend :    VFR   Marginal VFR   IFR   Intensive IFR   Very Intensive IFR
Visi :
Ceiling :
>= 8 km
>= 3000ft
5 to 8 km
1000 to 3000 ft
1500m to 5 km
500 to 1000 ft
800 to 1500m
200 to 500 ft
< 800m
< 200 ft
Symbols :   Thunderstorms  Fog  Heavy snow  Heavy precipitations  Wind > 20 kt
SIGMETs :     Misc.  Thunderstorms  Icing  Turbulence  Mountain Waves  Volcanic Ashes






- Airport Elevation : 353 ft
- IATA code : LIN


LIML - Milano Linate

CURRENT METAR :
  • 060320Z AUTO 01003KT 9999 NCD 07/03 Q1025

EXPIRED METARs :
  • 060250Z AUTO 02003KT 9999 NCD 08/03 Q1025
  • 060220Z AUTO VRB02KT 9999 NCD 07/03 Q1025
  • 060150Z AUTO VRB02KT 9999 NCD 07/01 Q1025
  • 060120Z AUTO VRB02KT 9999 NCD 07/02 Q1025
  • 060050Z AUTO 06003KT 030V090 9999 NCD 08/04 Q1025
  • 060020Z AUTO 03002KT 9999 NCD 08/03 Q1025

TAF TAF LIML
Valid from the 05 at 18:00 until the 06 at 18:00 UTC


051700Z 0518/0618 VRB04KT CAVOK



MET'MAP, your aeronautical weather chart ! - Copyright ORBIFLY December 2007 - Disclaimer

ORBIFLY MET'MAP TEAM :

Programming & Development : Alexandra Zaïnal
Concept & original design : Baudouin d'Aumeries
Assistance for programming : Marc-Olivier Méhu
Technical & hardware support : Manuel Goepfert

Contact : metmap@orbifly.com




SOURCES & CREDITS :

   NOAA